sensor_id;sensor_type;location;lat;lon;timestamp;P1;durP1;ratioP1;P2;durP2;ratioP2
18796;SDS011;9526;52.612;13.300;2023-07-02T00:02:18;1.42;;;1.33;;
18796;SDS011;9526;52.612;13.300;2023-07-02T00:04:45;2.63;;;1.80;;
18796;SDS011;9526;52.612;13.300;2023-07-02T00:07:09;1.75;;;1.65;;
18796;SDS011;9526;52.612;13.300;2023-07-02T00:09:33;2.72;;;2.05;;
18796;SDS011;9526;52.612;13.300;2023-07-02T00:11:57;1.98;;;1.73;;
18796;SDS011;9526;52.612;13.300;2023-07-02T00:14:20;1.98;;;1.70;;
18796;SDS011;9526;52.612;13.300;2023-07-02T00:16:44;1.75;;;1.63;;
18796;SDS011;9526;52.612;13.300;2023-07-02T00:19:09;2.05;;;1.65;;
18796;SDS011;9526;52.612;13.300;2023-07-02T00:21:34;3.30;;;1.83;;
18796;SDS011;9526;52.612;13.300;2023-07-02T00:23:58;2.17;;;1.60;;
18796;SDS011;9526;52.612;13.300;2023-07-02T00:26:23;2.42;;;1.80;;
18796;SDS011;9526;52.612;13.300;2023-07-02T00:28:47;2.40;;;1.80;;
18796;SDS011;9526;52.612;13.300;2023-07-02T00:31:11;4.28;;;1.90;;
18796;SDS011;9526;52.612;13.300;2023-07-02T00:33:34;2.58;;;1.92;;
18796;SDS011;9526;52.612;13.300;2023-07-02T00:35:58;1.67;;;1.52;;
18796;SDS011;9526;52.612;13.300;2023-07-02T00:38:23;4.07;;;2.10;;
18796;SDS011;9526;52.612;13.300;2023-07-02T00:40:47;2.35;;;1.88;;
18796;SDS011;9526;52.612;13.300;2023-07-02T00:43:11;2.00;;;1.77;;
18796;SDS011;9526;52.612;13.300;2023-07-02T00:45:35;2.95;;;2.28;;
18796;SDS011;9526;52.612;13.300;2023-07-02T00:48:00;2.00;;;1.80;;
18796;SDS011;9526;52.612;13.300;2023-07-02T00:50:28;3.03;;;1.95;;
18796;SDS011;9526;52.612;13.300;2023-07-02T00:52:52;2.25;;;2.00;;
18796;SDS011;9526;52.612;13.300;2023-07-02T00:55:18;2.40;;;2.10;;
18796;SDS011;9526;52.612;13.300;2023-07-02T00:57:43;3.08;;;2.20;;
18796;SDS011;9526;52.612;13.300;2023-07-02T01:00:08;3.35;;;2.10;;
18796;SDS011;9526;52.612;13.300;2023-07-02T01:02:33;2.85;;;2.22;;
18796;SDS011;9526;52.612;13.300;2023-07-02T01:04:57;2.67;;;1.90;;
18796;SDS011;9526;52.612;13.300;2023-07-02T01:07:23;2.85;;;2.35;;
18796;SDS011;9526;52.612;13.300;2023-07-02T01:09:47;2.45;;;2.20;;
18796;SDS011;9526;52.612;13.300;2023-07-02T01:12:12;3.30;;;2.22;;
18796;SDS011;9526;52.612;13.300;2023-07-02T01:14:38;3.00;;;2.50;;
18796;SDS011;9526;52.612;13.300;2023-07-02T01:17:05;2.67;;;2.30;;
18796;SDS011;9526;52.612;13.300;2023-07-02T01:19:38;3.58;;;2.50;;
18796;SDS011;9526;52.612;13.300;2023-07-02T01:22:06;2.63;;;2.08;;
18796;SDS011;9526;52.612;13.300;2023-07-02T01:24:31;4.40;;;2.90;;
18796;SDS011;9526;52.612;13.300;2023-07-02T01:26:55;4.72;;;2.50;;
18796;SDS011;9526;52.612;13.300;2023-07-02T01:29:22;3.25;;;2.88;;
18796;SDS011;9526;52.612;13.300;2023-07-02T01:31:46;4.60;;;2.70;;
18796;SDS011;9526;52.612;13.300;2023-07-02T01:34:10;3.30;;;2.78;;
18796;SDS011;9526;52.612;13.300;2023-07-02T01:36:37;4.45;;;2.80;;
18796;SDS011;9526;52.612;13.300;2023-07-02T01:39:01;3.45;;;2.80;;
18796;SDS011;9526;52.612;13.300;2023-07-02T01:41:25;3.50;;;3.08;;
18796;SDS011;9526;52.612;13.300;2023-07-02T01:43:49;5.75;;;3.33;;
18796;SDS011;9526;52.612;13.300;2023-07-02T01:46:13;4.15;;;2.92;;
18796;SDS011;9526;52.612;13.300;2023-07-02T01:48:37;4.97;;;3.30;;
18796;SDS011;9526;52.612;13.300;2023-07-02T01:51:01;4.03;;;3.08;;
18796;SDS011;9526;52.612;13.300;2023-07-02T01:53:26;4.50;;;3.58;;
18796;SDS011;9526;52.612;13.300;2023-07-02T01:55:49;4.13;;;3.40;;
18796;SDS011;9526;52.612;13.300;2023-07-02T01:58:13;6.47;;;3.60;;
18796;SDS011;9526;52.612;13.300;2023-07-02T02:00:37;4.07;;;3.45;;
18796;SDS011;9526;52.612;13.300;2023-07-02T02:03:00;4.68;;;3.65;;
18796;SDS011;9526;52.612;13.300;2023-07-02T02:05:24;7.13;;;4.13;;
18796;SDS011;9526;52.612;13.300;2023-07-02T02:07:48;5.18;;;3.70;;
18796;SDS011;9526;52.612;13.300;2023-07-02T02:10:13;8.57;;;3.72;;
18796;SDS011;9526;52.612;13.300;2023-07-02T02:12:37;5.55;;;4.07;;
18796;SDS011;9526;52.612;13.300;2023-07-02T02:15:01;4.88;;;3.88;;
18796;SDS011;9526;52.612;13.300;2023-07-02T02:17:24;6.03;;;3.90;;
18796;SDS011;9526;52.612;13.300;2023-07-02T02:19:48;6.35;;;4.50;;
18796;SDS011;9526;52.612;13.300;2023-07-02T02:22:12;5.15;;;4.05;;
18796;SDS011;9526;52.612;13.300;2023-07-02T02:24:35;5.70;;;4.28;;
18796;SDS011;9526;52.612;13.300;2023-07-02T02:27:00;5.57;;;4.30;;
18796;SDS011;9526;52.612;13.300;2023-07-02T02:29:24;6.93;;;4.50;;
18796;SDS011;9526;52.612;13.300;2023-07-02T02:31:48;7.28;;;4.28;;
18796;SDS011;9526;52.612;13.300;2023-07-02T02:34:12;6.40;;;4.07;;
18796;SDS011;9526;52.612;13.300;2023-07-02T02:36:36;8.15;;;4.35;;
18796;SDS011;9526;52.612;13.300;2023-07-02T02:38:59;5.97;;;4.50;;
18796;SDS011;9526;52.612;13.300;2023-07-02T02:41:24;5.43;;;4.47;;
18796;SDS011;9526;52.612;13.300;2023-07-02T02:43:49;5.43;;;4.30;;
18796;SDS011;9526;52.612;13.300;2023-07-02T02:46:19;6.35;;;4.90;;
18796;SDS011;9526;52.612;13.300;2023-07-02T02:48:43;6.38;;;4.10;;
18796;SDS011;9526;52.612;13.300;2023-07-02T02:51:07;8.35;;;4.70;;
18796;SDS011;9526;52.612;13.300;2023-07-02T02:53:30;5.20;;;3.90;;
18796;SDS011;9526;52.612;13.300;2023-07-02T02:55:54;6.30;;;4.53;;
18796;SDS011;9526;52.612;13.300;2023-07-02T02:58:18;7.05;;;4.40;;
18796;SDS011;9526;52.612;13.300;2023-07-02T03:00:43;6.32;;;4.10;;
18796;SDS011;9526;52.612;13.300;2023-07-02T03:03:08;5.50;;;4.15;;
18796;SDS011;9526;52.612;13.300;2023-07-02T03:05:32;4.90;;;4.00;;
18796;SDS011;9526;52.612;13.300;2023-07-02T03:07:55;5.50;;;4.47;;
18796;SDS011;9526;52.612;13.300;2023-07-02T03:10:19;5.25;;;4.25;;
18796;SDS011;9526;52.612;13.300;2023-07-02T03:12:43;5.22;;;3.97;;
18796;SDS011;9526;52.612;13.300;2023-07-02T03:15:07;5.63;;;4.18;;
18796;SDS011;9526;52.612;13.300;2023-07-02T03:17:33;6.25;;;4.60;;
18796;SDS011;9526;52.612;13.300;2023-07-02T03:19:56;6.43;;;4.30;;
18796;SDS011;9526;52.612;13.300;2023-07-02T03:22:20;7.28;;;4.13;;
18796;SDS011;9526;52.612;13.300;2023-07-02T03:24:44;7.30;;;4.47;;
18796;SDS011;9526;52.612;13.300;2023-07-02T03:27:11;6.53;;;4.47;;
18796;SDS011;9526;52.612;13.300;2023-07-02T03:29:34;11.07;;;4.20;;
18796;SDS011;9526;52.612;13.300;2023-07-02T03:31:59;5.93;;;4.38;;
18796;SDS011;9526;52.612;13.300;2023-07-02T03:34:25;6.25;;;4.35;;
18796;SDS011;9526;52.612;13.300;2023-07-02T03:36:48;4.70;;;3.95;;
18796;SDS011;9526;52.612;13.300;2023-07-02T03:39:12;4.57;;;3.88;;
18796;SDS011;9526;52.612;13.300;2023-07-02T03:41:36;6.03;;;3.75;;
18796;SDS011;9526;52.612;13.300;2023-07-02T03:44:00;5.68;;;4.25;;
18796;SDS011;9526;52.612;13.300;2023-07-02T03:46:23;4.40;;;3.47;;
18796;SDS011;9526;52.612;13.300;2023-07-02T03:48:47;7.45;;;4.40;;
18796;SDS011;9526;52.612;13.300;2023-07-02T03:51:12;6.53;;;4.28;;
18796;SDS011;9526;52.612;13.300;2023-07-02T03:53:36;5.60;;;3.83;;
18796;SDS011;9526;52.612;13.300;2023-07-02T03:56:00;4.68;;;3.85;;
18796;SDS011;9526;52.612;13.300;2023-07-02T03:58:24;4.97;;;3.92;;
18796;SDS011;9526;52.612;13.300;2023-07-02T04:00:48;4.25;;;3.47;;
18796;SDS011;9526;52.612;13.300;2023-07-02T04:03:12;5.28;;;4.00;;
18796;SDS011;9526;52.612;13.300;2023-07-02T04:05:35;9.15;;;4.32;;
18796;SDS011;9526;52.612;13.300;2023-07-02T04:08:00;5.25;;;3.50;;
18796;SDS011;9526;52.612;13.300;2023-07-02T04:10:24;4.15;;;3.70;;
18796;SDS011;9526;52.612;13.300;2023-07-02T04:12:48;4.50;;;3.70;;
18796;SDS011;9526;52.612;13.300;2023-07-02T04:15:12;10.60;;;4.20;;
18796;SDS011;9526;52.612;13.300;2023-07-02T04:17:35;7.43;;;4.00;;
18796;SDS011;9526;52.612;13.300;2023-07-02T04:19:59;5.38;;;3.50;;
18796;SDS011;9526;52.612;13.300;2023-07-02T04:22:25;4.78;;;3.80;;
18796;SDS011;9526;52.612;13.300;2023-07-02T04:24:50;5.78;;;3.90;;
18796;SDS011;9526;52.612;13.300;2023-07-02T04:27:18;4.80;;;3.80;;
18796;SDS011;9526;52.612;13.300;2023-07-02T04:30:01;7.43;;;4.20;;
18796;SDS011;9526;52.612;13.300;2023-07-02T04:32:27;6.10;;;4.45;;
18796;SDS011;9526;52.612;13.300;2023-07-02T04:34:51;6.30;;;3.70;;
18796;SDS011;9526;52.612;13.300;2023-07-02T04:37:14;5.70;;;3.60;;
18796;SDS011;9526;52.612;13.300;2023-07-02T04:39:38;5.90;;;3.90;;
18796;SDS011;9526;52.612;13.300;2023-07-02T04:42:04;5.88;;;3.60;;
18796;SDS011;9526;52.612;13.300;2023-07-02T04:44:28;6.18;;;3.65;;
18796;SDS011;9526;52.612;13.300;2023-07-02T04:46:52;4.72;;;3.63;;
18796;SDS011;9526;52.612;13.300;2023-07-02T04:49:15;7.72;;;3.85;;
18796;SDS011;9526;52.612;13.300;2023-07-02T04:51:39;4.53;;;3.65;;
18796;SDS011;9526;52.612;13.300;2023-07-02T04:54:03;6.40;;;3.75;;
18796;SDS011;9526;52.612;13.300;2023-07-02T04:56:26;9.73;;;4.38;;
18796;SDS011;9526;52.612;13.300;2023-07-02T04:58:51;5.22;;;3.90;;
18796;SDS011;9526;52.612;13.300;2023-07-02T05:01:15;11.48;;;3.63;;
18796;SDS011;9526;52.612;13.300;2023-07-02T05:03:39;4.38;;;3.53;;
18796;SDS011;9526;52.612;13.300;2023-07-02T05:06:02;4.65;;;3.70;;
18796;SDS011;9526;52.612;13.300;2023-07-02T05:08:26;5.03;;;3.80;;
18796;SDS011;9526;52.612;13.300;2023-07-02T05:10:50;4.15;;;3.20;;
18796;SDS011;9526;52.612;13.300;2023-07-02T05:13:14;4.72;;;3.25;;
18796;SDS011;9526;52.612;13.300;2023-07-02T05:15:39;4.57;;;3.30;;
18796;SDS011;9526;52.612;13.300;2023-07-02T05:18:04;5.07;;;3.25;;
18796;SDS011;9526;52.612;13.300;2023-07-02T05:20:28;9.77;;;3.33;;
18796;SDS011;9526;52.612;13.300;2023-07-02T05:22:52;3.58;;;3.00;;
18796;SDS011;9526;52.612;13.300;2023-07-02T05:25:15;6.32;;;3.08;;
18796;SDS011;9526;52.612;13.300;2023-07-02T05:27:39;5.53;;;3.08;;
18796;SDS011;9526;52.612;13.300;2023-07-02T05:30:03;5.10;;;3.30;;
18796;SDS011;9526;52.612;13.300;2023-07-02T05:32:30;6.82;;;3.28;;
18796;SDS011;9526;52.612;13.300;2023-07-02T05:34:53;5.35;;;2.90;;
18796;SDS011;9526;52.612;13.300;2023-07-02T05:37:17;3.78;;;3.00;;
18796;SDS011;9526;52.612;13.300;2023-07-02T05:39:41;4.93;;;3.08;;
18796;SDS011;9526;52.612;13.300;2023-07-02T05:42:04;3.70;;;2.80;;
18796;SDS011;9526;52.612;13.300;2023-07-02T05:44:28;4.18;;;2.95;;
18796;SDS011;9526;52.612;13.300;2023-07-02T05:46:52;4.53;;;3.25;;
18796;SDS011;9526;52.612;13.300;2023-07-02T05:49:17;4.75;;;2.50;;
18796;SDS011;9526;52.612;13.300;2023-07-02T05:51:40;11.50;;;3.35;;
18796;SDS011;9526;52.612;13.300;2023-07-02T05:54:04;5.90;;;2.85;;
18796;SDS011;9526;52.612;13.300;2023-07-02T05:56:28;3.08;;;2.50;;
18796;SDS011;9526;52.612;13.300;2023-07-02T05:58:51;3.90;;;2.58;;
18796;SDS011;9526;52.612;13.300;2023-07-02T06:01:15;4.85;;;2.40;;
18796;SDS011;9526;52.612;13.300;2023-07-02T06:03:39;4.43;;;2.70;;
18796;SDS011;9526;52.612;13.300;2023-07-02T06:06:05;4.30;;;2.70;;
18796;SDS011;9526;52.612;13.300;2023-07-02T06:08:28;3.75;;;2.50;;
18796;SDS011;9526;52.612;13.300;2023-07-02T06:10:52;4.90;;;2.70;;
18796;SDS011;9526;52.612;13.300;2023-07-02T06:13:16;5.70;;;2.63;;
18796;SDS011;9526;52.612;13.300;2023-07-02T06:15:40;3.92;;;2.42;;
18796;SDS011;9526;52.612;13.300;2023-07-02T06:18:03;5.35;;;2.75;;
18796;SDS011;9526;52.612;13.300;2023-07-02T06:20:27;5.65;;;2.72;;
18796;SDS011;9526;52.612;13.300;2023-07-02T06:22:52;3.35;;;2.30;;
18796;SDS011;9526;52.612;13.300;2023-07-02T06:25:16;5.35;;;2.92;;
18796;SDS011;9526;52.612;13.300;2023-07-02T06:27:40;8.00;;;2.60;;
18796;SDS011;9526;52.612;13.300;2023-07-02T06:30:04;6.07;;;2.78;;
18796;SDS011;9526;52.612;13.300;2023-07-02T06:32:30;3.95;;;2.58;;
18796;SDS011;9526;52.612;13.300;2023-07-02T06:34:54;3.38;;;2.30;;
18796;SDS011;9526;52.612;13.300;2023-07-02T06:37:17;3.22;;;2.47;;
18796;SDS011;9526;52.612;13.300;2023-07-02T06:39:42;2.90;;;2.20;;
18796;SDS011;9526;52.612;13.300;2023-07-02T06:42:06;4.53;;;2.85;;
18796;SDS011;9526;52.612;13.300;2023-07-02T06:44:32;3.50;;;2.22;;
18796;SDS011;9526;52.612;13.300;2023-07-02T06:46:56;2.95;;;2.40;;
18796;SDS011;9526;52.612;13.300;2023-07-02T06:49:20;2.95;;;2.33;;
18796;SDS011;9526;52.612;13.300;2023-07-02T06:51:44;4.30;;;2.22;;
18796;SDS011;9526;52.612;13.300;2023-07-02T06:54:08;3.65;;;2.13;;
18796;SDS011;9526;52.612;13.300;2023-07-02T06:56:33;3.80;;;1.80;;
18796;SDS011;9526;52.612;13.300;2023-07-02T06:58:57;4.97;;;2.10;;
18796;SDS011;9526;52.612;13.300;2023-07-02T07:01:20;3.72;;;2.20;;
18796;SDS011;9526;52.612;13.300;2023-07-02T07:03:44;3.83;;;2.00;;
18796;SDS011;9526;52.612;13.300;2023-07-02T07:06:08;4.57;;;2.25;;
18796;SDS011;9526;52.612;13.300;2023-07-02T07:08:32;5.32;;;2.47;;
18796;SDS011;9526;52.612;13.300;2023-07-02T07:10:55;7.05;;;2.50;;
18796;SDS011;9526;52.612;13.300;2023-07-02T07:13:20;3.88;;;2.28;;
18796;SDS011;9526;52.612;13.300;2023-07-02T07:15:44;4.32;;;2.20;;
18796;SDS011;9526;52.612;13.300;2023-07-02T07:18:08;4.18;;;2.67;;
18796;SDS011;9526;52.612;13.300;2023-07-02T07:20:32;5.93;;;2.83;;
18796;SDS011;9526;52.612;13.300;2023-07-02T07:22:56;3.50;;;2.30;;
18796;SDS011;9526;52.612;13.300;2023-07-02T07:25:20;3.28;;;2.45;;
18796;SDS011;9526;52.612;13.300;2023-07-02T07:27:44;4.15;;;2.40;;
18796;SDS011;9526;52.612;13.300;2023-07-02T07:30:10;3.72;;;2.47;;
18796;SDS011;9526;52.612;13.300;2023-07-02T07:32:35;5.50;;;2.60;;
18796;SDS011;9526;52.612;13.300;2023-07-02T07:34:59;4.03;;;2.92;;
18796;SDS011;9526;52.612;13.300;2023-07-02T07:37:23;3.35;;;2.20;;
18796;SDS011;9526;52.612;13.300;2023-07-02T07:39:47;4.43;;;2.28;;
18796;SDS011;9526;52.612;13.300;2023-07-02T07:42:11;5.22;;;2.40;;
18796;SDS011;9526;52.612;13.300;2023-07-02T07:44:38;3.35;;;2.25;;
18796;SDS011;9526;52.612;13.300;2023-07-02T07:47:03;6.80;;;2.92;;
18796;SDS011;9526;52.612;13.300;2023-07-02T07:49:27;3.90;;;2.78;;
18796;SDS011;9526;52.612;13.300;2023-07-02T07:51:51;3.55;;;2.67;;
18796;SDS011;9526;52.612;13.300;2023-07-02T07:54:15;6.55;;;2.65;;
18796;SDS011;9526;52.612;13.300;2023-07-02T07:56:38;4.38;;;2.50;;
18796;SDS011;9526;52.612;13.300;2023-07-02T07:59:02;4.63;;;2.80;;
18796;SDS011;9526;52.612;13.300;2023-07-02T08:01:26;5.22;;;2.55;;
18796;SDS011;9526;52.612;13.300;2023-07-02T08:03:51;5.63;;;2.55;;
18796;SDS011;9526;52.612;13.300;2023-07-02T08:06:15;3.53;;;2.28;;
18796;SDS011;9526;52.612;13.300;2023-07-02T08:08:38;4.28;;;2.40;;
18796;SDS011;9526;52.612;13.300;2023-07-02T08:11:02;2.70;;;2.30;;
18796;SDS011;9526;52.612;13.300;2023-07-02T08:13:26;4.97;;;2.55;;
18796;SDS011;9526;52.612;13.300;2023-07-02T08:15:49;3.97;;;2.63;;
18796;SDS011;9526;52.612;13.300;2023-07-02T08:18:13;5.38;;;2.70;;
18796;SDS011;9526;52.612;13.300;2023-07-02T08:20:38;5.80;;;2.80;;
18796;SDS011;9526;52.612;13.300;2023-07-02T08:23:02;3.80;;;2.67;;
18796;SDS011;9526;52.612;13.300;2023-07-02T08:25:25;4.63;;;2.58;;
18796;SDS011;9526;52.612;13.300;2023-07-02T08:27:50;4.00;;;2.78;;
18796;SDS011;9526;52.612;13.300;2023-07-02T08:30:13;3.78;;;2.58;;
18796;SDS011;9526;52.612;13.300;2023-07-02T08:32:38;4.35;;;2.47;;
18796;SDS011;9526;52.612;13.300;2023-07-02T08:35:02;4.47;;;2.97;;
18796;SDS011;9526;52.612;13.300;2023-07-02T08:37:28;3.67;;;2.78;;
18796;SDS011;9526;52.612;13.300;2023-07-02T08:39:51;5.00;;;2.83;;
18796;SDS011;9526;52.612;13.300;2023-07-02T08:42:15;4.28;;;2.63;;
18796;SDS011;9526;52.612;13.300;2023-07-02T08:44:39;5.07;;;2.80;;
18796;SDS011;9526;52.612;13.300;2023-07-02T08:47:04;3.15;;;2.60;;
18796;SDS011;9526;52.612;13.300;2023-07-02T08:49:28;4.32;;;2.90;;
18796;SDS011;9526;52.612;13.300;2023-07-02T08:51:52;5.95;;;2.90;;
18796;SDS011;9526;52.612;13.300;2023-07-02T08:54:18;4.05;;;2.85;;
18796;SDS011;9526;52.612;13.300;2023-07-02T08:56:42;4.68;;;2.95;;
18796;SDS011;9526;52.612;13.300;2023-07-02T08:59:06;6.63;;;2.67;;
18796;SDS011;9526;52.612;13.300;2023-07-02T09:01:30;5.82;;;3.10;;
18796;SDS011;9526;52.612;13.300;2023-07-02T09:03:58;6.47;;;3.22;;
18796;SDS011;9526;52.612;13.300;2023-07-02T09:06:22;5.75;;;3.03;;
18796;SDS011;9526;52.612;13.300;2023-07-02T09:08:46;7.70;;;3.35;;
18796;SDS011;9526;52.612;13.300;2023-07-02T09:11:11;4.75;;;3.40;;
18796;SDS011;9526;52.612;13.300;2023-07-02T09:13:41;7.15;;;3.13;;
18796;SDS011;9526;52.612;13.300;2023-07-02T09:16:20;6.20;;;3.00;;
18796;SDS011;9526;52.612;13.300;2023-07-02T09:18:56;7.05;;;3.40;;
18796;SDS011;9526;52.612;13.300;2023-07-02T09:21:25;7.20;;;3.25;;
18796;SDS011;9526;52.612;13.300;2023-07-02T09:23:50;5.72;;;3.40;;
18796;SDS011;9526;52.612;13.300;2023-07-02T09:26:20;6.55;;;3.58;;
18796;SDS011;9526;52.612;13.300;2023-07-02T09:28:44;9.60;;;3.67;;
18796;SDS011;9526;52.612;13.300;2023-07-02T09:31:11;5.32;;;3.08;;
18796;SDS011;9526;52.612;13.300;2023-07-02T09:33:34;6.20;;;3.35;;
18796;SDS011;9526;52.612;13.300;2023-07-02T09:35:58;5.75;;;3.55;;
18796;SDS011;9526;52.612;13.300;2023-07-02T09:38:22;7.13;;;3.65;;
18796;SDS011;9526;52.612;13.300;2023-07-02T09:40:46;8.20;;;2.88;;
18796;SDS011;9526;52.612;13.300;2023-07-02T09:43:15;7.18;;;3.72;;
18796;SDS011;9526;52.612;13.300;2023-07-02T09:45:41;7.25;;;3.45;;
18796;SDS011;9526;52.612;13.300;2023-07-02T09:48:07;10.43;;;3.50;;
18796;SDS011;9526;52.612;13.300;2023-07-02T09:50:32;7.60;;;3.80;;
18796;SDS011;9526;52.612;13.300;2023-07-02T09:52:56;7.93;;;3.67;;
18796;SDS011;9526;52.612;13.300;2023-07-02T09:55:21;6.10;;;3.60;;
18796;SDS011;9526;52.612;13.300;2023-07-02T09:57:44;8.10;;;4.05;;
18796;SDS011;9526;52.612;13.300;2023-07-02T10:00:10;12.68;;;3.65;;
18796;SDS011;9526;52.612;13.300;2023-07-02T10:02:35;6.28;;;3.17;;
18796;SDS011;9526;52.612;13.300;2023-07-02T10:04:59;9.10;;;3.97;;
18796;SDS011;9526;52.612;13.300;2023-07-02T10:07:27;11.60;;;4.20;;
18796;SDS011;9526;52.612;13.300;2023-07-02T10:09:52;4.60;;;2.85;;
18796;SDS011;9526;52.612;13.300;2023-07-02T10:12:16;7.63;;;3.80;;
18796;SDS011;9526;52.612;13.300;2023-07-02T10:14:41;8.68;;;4.20;;
18796;SDS011;9526;52.612;13.300;2023-07-02T10:17:07;8.88;;;3.97;;
18796;SDS011;9526;52.612;13.300;2023-07-02T10:19:31;8.27;;;4.13;;
18796;SDS011;9526;52.612;13.300;2023-07-02T10:22:01;11.30;;;4.05;;
18796;SDS011;9526;52.612;13.300;2023-07-02T10:24:25;7.18;;;4.38;;
18796;SDS011;9526;52.612;13.300;2023-07-02T10:26:52;8.43;;;3.72;;
18796;SDS011;9526;52.612;13.300;2023-07-02T10:29:18;8.05;;;3.60;;
18796;SDS011;9526;52.612;13.300;2023-07-02T10:31:47;10.15;;;4.22;;
18796;SDS011;9526;52.612;13.300;2023-07-02T10:34:13;8.27;;;3.83;;
18796;SDS011;9526;52.612;13.300;2023-07-02T10:36:36;7.97;;;4.03;;
18796;SDS011;9526;52.612;13.300;2023-07-02T10:39:03;7.85;;;4.22;;
18796;SDS011;9526;52.612;13.300;2023-07-02T10:41:28;10.10;;;2.42;;
18796;SDS011;9526;52.612;13.300;2023-07-02T10:43:52;9.07;;;4.57;;
18796;SDS011;9526;52.612;13.300;2023-07-02T10:46:18;7.07;;;3.97;;
18796;SDS011;9526;52.612;13.300;2023-07-02T10:48:50;7.97;;;4.50;;
18796;SDS011;9526;52.612;13.300;2023-07-02T10:51:16;10.95;;;3.95;;
18796;SDS011;9526;52.612;13.300;2023-07-02T10:53:39;8.95;;;4.30;;
18796;SDS011;9526;52.612;13.300;2023-07-02T10:56:03;9.60;;;4.40;;
18796;SDS011;9526;52.612;13.300;2023-07-02T10:58:27;8.50;;;3.95;;
18796;SDS011;9526;52.612;13.300;2023-07-02T11:00:51;10.48;;;5.22;;
18796;SDS011;9526;52.612;13.300;2023-07-02T11:03:16;7.97;;;3.65;;
18796;SDS011;9526;52.612;13.300;2023-07-02T11:05:41;9.35;;;3.67;;
18796;SDS011;9526;52.612;13.300;2023-07-02T11:08:08;9.88;;;4.60;;
18796;SDS011;9526;52.612;13.300;2023-07-02T11:10:32;11.73;;;4.80;;
18796;SDS011;9526;52.612;13.300;2023-07-02T11:12:56;8.02;;;4.00;;
18796;SDS011;9526;52.612;13.300;2023-07-02T11:15:20;12.35;;;4.25;;
18796;SDS011;9526;52.612;13.300;2023-07-02T11:17:44;9.13;;;4.38;;
18796;SDS011;9526;52.612;13.300;2023-07-02T11:20:08;12.18;;;4.50;;
18796;SDS011;9526;52.612;13.300;2023-07-02T11:22:34;8.98;;;3.95;;
18796;SDS011;9526;52.612;13.300;2023-07-02T11:25:09;9.40;;;4.22;;
18796;SDS011;9526;52.612;13.300;2023-07-02T11:27:34;9.60;;;3.78;;
18796;SDS011;9526;52.612;13.300;2023-07-02T11:29:59;9.93;;;5.05;;
18796;SDS011;9526;52.612;13.300;2023-07-02T11:32:22;8.82;;;4.20;;
18796;SDS011;9526;52.612;13.300;2023-07-02T11:34:52;8.02;;;4.63;;
18796;SDS011;9526;52.612;13.300;2023-07-02T11:37:18;10.48;;;4.60;;
18796;SDS011;9526;52.612;13.300;2023-07-02T11:39:42;7.93;;;4.07;;
18796;SDS011;9526;52.612;13.300;2023-07-02T11:42:08;11.25;;;4.00;;
18796;SDS011;9526;52.612;13.300;2023-07-02T11:44:31;8.38;;;4.40;;
18796;SDS011;9526;52.612;13.300;2023-07-02T11:46:55;11.65;;;4.63;;
18796;SDS011;9526;52.612;13.300;2023-07-02T11:49:19;11.02;;;4.55;;
18796;SDS011;9526;52.612;13.300;2023-07-02T11:51:42;10.43;;;4.40;;
18796;SDS011;9526;52.612;13.300;2023-07-02T11:54:10;9.68;;;4.50;;
18796;SDS011;9526;52.612;13.300;2023-07-02T11:56:33;10.63;;;4.63;;
18796;SDS011;9526;52.612;13.300;2023-07-02T11:58:58;11.50;;;4.97;;
18796;SDS011;9526;52.612;13.300;2023-07-02T12:01:25;11.48;;;4.00;;
18796;SDS011;9526;52.612;13.300;2023-07-02T12:03:49;11.18;;;4.82;;
18796;SDS011;9526;52.612;13.300;2023-07-02T12:06:13;11.63;;;5.18;;
18796;SDS011;9526;52.612;13.300;2023-07-02T12:08:36;10.90;;;4.78;;
18796;SDS011;9526;52.612;13.300;2023-07-02T12:11:01;14.75;;;4.82;;
18796;SDS011;9526;52.612;13.300;2023-07-02T12:13:24;12.55;;;4.78;;
18796;SDS011;9526;52.612;13.300;2023-07-02T12:15:49;10.45;;;4.53;;
18796;SDS011;9526;52.612;13.300;2023-07-02T12:18:13;12.32;;;4.45;;
18796;SDS011;9526;52.612;13.300;2023-07-02T12:20:37;10.50;;;4.13;;
18796;SDS011;9526;52.612;13.300;2023-07-02T12:23:02;10.50;;;4.57;;
18796;SDS011;9526;52.612;13.300;2023-07-02T12:25:27;7.97;;;4.25;;
18796;SDS011;9526;52.612;13.300;2023-07-02T12:27:50;11.90;;;4.47;;
18796;SDS011;9526;52.612;13.300;2023-07-02T12:30:15;11.32;;;4.32;;
18796;SDS011;9526;52.612;13.300;2023-07-02T12:32:41;9.85;;;4.70;;
18796;SDS011;9526;52.612;13.300;2023-07-02T12:35:06;12.57;;;4.50;;
18796;SDS011;9526;52.612;13.300;2023-07-02T12:37:31;9.05;;;3.83;;
18796;SDS011;9526;52.612;13.300;2023-07-02T12:39:55;9.20;;;3.95;;
18796;SDS011;9526;52.612;13.300;2023-07-02T12:42:19;12.00;;;4.35;;
18796;SDS011;9526;52.612;13.300;2023-07-02T12:44:43;8.27;;;4.70;;
18796;SDS011;9526;52.612;13.300;2023-07-02T12:47:07;11.15;;;4.68;;
18796;SDS011;9526;52.612;13.300;2023-07-02T12:49:32;9.45;;;4.53;;
18796;SDS011;9526;52.612;13.300;2023-07-02T12:51:56;9.57;;;4.38;;
18796;SDS011;9526;52.612;13.300;2023-07-02T12:54:20;12.65;;;4.80;;
18796;SDS011;9526;52.612;13.300;2023-07-02T12:56:43;8.00;;;4.47;;
18796;SDS011;9526;52.612;13.300;2023-07-02T12:59:07;18.98;;;5.45;;
18796;SDS011;9526;52.612;13.300;2023-07-02T13:01:30;7.75;;;4.75;;
18796;SDS011;9526;52.612;13.300;2023-07-02T13:03:54;12.57;;;5.18;;
18796;SDS011;9526;52.612;13.300;2023-07-02T13:06:20;10.25;;;4.47;;
18796;SDS011;9526;52.612;13.300;2023-07-02T13:08:43;10.45;;;4.72;;
18796;SDS011;9526;52.612;13.300;2023-07-02T13:11:07;9.20;;;4.07;;
18796;SDS011;9526;52.612;13.300;2023-07-02T13:13:31;10.30;;;4.35;;
18796;SDS011;9526;52.612;13.300;2023-07-02T13:15:54;11.15;;;5.00;;
18796;SDS011;9526;52.612;13.300;2023-07-02T13:18:19;7.82;;;4.13;;
18796;SDS011;9526;52.612;13.300;2023-07-02T13:20:43;7.75;;;4.55;;
18796;SDS011;9526;52.612;13.300;2023-07-02T13:23:08;9.77;;;4.53;;
18796;SDS011;9526;52.612;13.300;2023-07-02T13:25:31;8.70;;;4.80;;
18796;SDS011;9526;52.612;13.300;2023-07-02T13:27:55;10.80;;;4.60;;
18796;SDS011;9526;52.612;13.300;2023-07-02T13:30:19;7.28;;;4.30;;
18796;SDS011;9526;52.612;13.300;2023-07-02T13:32:43;8.27;;;4.53;;
18796;SDS011;9526;52.612;13.300;2023-07-02T13:35:07;9.07;;;4.70;;
18796;SDS011;9526;52.612;13.300;2023-07-02T13:37:31;10.10;;;4.47;;
18796;SDS011;9526;52.612;13.300;2023-07-02T13:39:56;9.57;;;4.50;;
18796;SDS011;9526;52.612;13.300;2023-07-02T13:42:19;15.52;;;5.13;;
18796;SDS011;9526;52.612;13.300;2023-07-02T13:44:43;13.63;;;5.13;;
18796;SDS011;9526;52.612;13.300;2023-07-02T13:47:07;10.85;;;5.18;;
18796;SDS011;9526;52.612;13.300;2023-07-02T13:49:31;11.00;;;4.72;;
18796;SDS011;9526;52.612;13.300;2023-07-02T13:51:55;9.85;;;4.20;;
18796;SDS011;9526;52.612;13.300;2023-07-02T13:54:19;8.85;;;4.32;;
18796;SDS011;9526;52.612;13.300;2023-07-02T13:56:44;12.82;;;4.85;;
18796;SDS011;9526;52.612;13.300;2023-07-02T13:59:12;9.90;;;5.00;;
18796;SDS011;9526;52.612;13.300;2023-07-02T14:01:37;7.38;;;4.15;;
18796;SDS011;9526;52.612;13.300;2023-07-02T14:04:01;12.52;;;4.05;;
18796;SDS011;9526;52.612;13.300;2023-07-02T14:06:25;10.05;;;4.80;;
18796;SDS011;9526;52.612;13.300;2023-07-02T14:08:49;10.55;;;4.68;;
18796;SDS011;9526;52.612;13.300;2023-07-02T14:11:13;10.45;;;4.78;;
18796;SDS011;9526;52.612;13.300;2023-07-02T14:13:37;7.65;;;4.35;;
18796;SDS011;9526;52.612;13.300;2023-07-02T14:16:02;9.20;;;4.45;;
18796;SDS011;9526;52.612;13.300;2023-07-02T14:18:26;11.35;;;4.72;;
18796;SDS011;9526;52.612;13.300;2023-07-02T14:20:49;12.18;;;4.18;;
18796;SDS011;9526;52.612;13.300;2023-07-02T14:23:13;12.32;;;4.70;;
18796;SDS011;9526;52.612;13.300;2023-07-02T14:25:37;12.13;;;4.47;;
18796;SDS011;9526;52.612;13.300;2023-07-02T14:28:02;11.32;;;4.68;;
18796;SDS011;9526;52.612;13.300;2023-07-02T14:30:26;10.05;;;3.78;;